Great Smoky Mtns National Park, NC

11:54 AM EDT del 30 Agosto 2015 (GMT -0400)
Upper East End - Beaucatcher | | Change Station
CLOSE
Current Station
Stazione meteo personale
Location: Asheville, NC
Altitudine: 2313 ft
Stazioni meteo nelle vicinanze

Alt. 2313 ft 35.59 °N, 82.54 °W | Updated 0 second ago

Coperto
Coperto
69.3 °F
Sembra 69.3 °F
N
1.0
Vento Variabile Vento da ESE
Gusts 3.0 mph

Oggi
Massima -- | Minima -- °F
--% Possibilità di precip.
Ieri
Massima -- | Minima -- °F
Precip. -- in
7:00 AM 8:00 PM
Luna piena, 99% visible
Pressione 30.19 in
Visibilità 10.0 miglia
Nuvole Molto nuvoloso 9000 ft
Coperto 11000 ft
Punto di rugiada 63 °F
Umidità 80%
Piovosità 0.00 in
Spessore del manto nevoso Non disponibile.
Raggi UV 2 fuori da 12
Polline 5.20 fuori da 12
Qualità dell'aria Non disponibile.
Flu Activity Non disponibile.
METAR KAVL 301454Z 17003KT 10SM BKN090 OVC110 20/16 A3026 RMK AO2 SLP224 T02000161 53007
Pressione 30.19 in
Visibilità 10.0 miglia
Nuvole Molto nuvoloso 9000 ft
Coperto 11000 ft
Punto di rugiada 63 °F
Umidità 80%
Piovosità 0.00 in
Spessore del manto nevoso Non disponibile.
Raggi UV 2 fuori da 12
Polline 5.20 fuori da 12
Qualità dell'aria Non disponibile.
Flu Activity Non disponibile.
METAR KAVL 301454Z 17003KT 10SM BKN090 OVC110 20/16 A3026 RMK AO2 SLP224 T02000161 53007

10-Day Weather Forecast

×

Almanac

Astronomia

Aug. 30, 2015 Alba Tramonto
Ora attuale
Crepuscolo civile
Crepuscolo nautico
Crepuscolo astronomico
Luna
Estensione della luce visibile
Lunghezza del giorno
Tomorrow will be .
, % of the Moon is Illuminated

Gli estremi di oggi

State Highs State Lows

Community

WunderPhotos

Upload Photos

1,850,997 foto caricate!

WunderBlogs® & News

Nearby

Qualità dell'aria

  Qualità dell'aria Indice AQ Inquinante
Not available.

Profondità neve

Stazione Profondità Altitudine

Attività sismica

Città  Distanza Mag. Data & Ora
Minimo Magnitudo Mostrato è 2.5.

Temperature delle acque costiere

Località Temperatura

Stations

Stazioni meteo nelle vicinanze

Ubicazione della stazione Temp. Raffreddamento del vento Punto di rugiada Umidità Vento Precip. Alt. Aggiornato Tipo